createdAt,value
2022-10-26T00:01:07.587Z,100018.25
2022-10-26T00:03:34.923Z,100031.25
2022-10-26T00:06:13.276Z,100026.88
2022-10-26T00:08:40.901Z,100019.00
2022-10-26T00:11:08.707Z,100019.88
2022-10-26T00:13:36.598Z,100029.47
2022-10-26T00:16:18.155Z,100026.88
2022-10-26T00:18:45.475Z,100024.22
2022-10-26T00:21:12.765Z,100024.25
2022-10-26T00:23:39.728Z,100028.56
2022-10-26T00:26:06.939Z,100022.47
2022-10-26T00:28:33.956Z,100031.13
2022-10-26T00:31:06.246Z,100026.78
2022-10-26T00:33:33.396Z,100026.75
2022-10-26T00:36:00.367Z,100031.09
2022-10-26T00:38:27.536Z,100036.31
2022-10-26T00:40:54.462Z,100025.88
2022-10-26T00:43:21.426Z,100030.19
2022-10-26T00:45:50.185Z,100033.66
2022-10-26T00:48:23.782Z,100038.00
2022-10-26T00:50:52.846Z,100036.22
2022-10-26T00:53:19.996Z,100035.38
2022-10-26T00:55:49.426Z,100039.75
2022-10-26T00:58:16.697Z,100041.41
2022-10-26T01:00:44.229Z,100032.69
2022-10-26T01:03:11.797Z,100044.88
2022-10-26T01:05:41.925Z,100045.78
2022-10-26T01:08:09.833Z,100045.78
2022-10-26T01:10:38.544Z,100044.03
2022-10-26T01:13:05.847Z,100048.34
2022-10-26T01:15:49.103Z,100044.03
2022-10-26T01:18:46.400Z,100045.72
2022-10-26T01:21:31.856Z,100045.72
2022-10-26T01:24:10.656Z,100033.50
2022-10-26T01:27:05.363Z,100034.44
2022-10-26T01:29:41.203Z,100040.50
2022-10-26T01:32:35.576Z,100042.28
2022-10-26T01:35:08.970Z,100039.69
2022-10-26T01:37:39.467Z,100038.00
2022-10-26T01:40:07.714Z,100045.00
2022-10-26T01:42:35.388Z,100041.50
2022-10-26T01:45:05.265Z,100038.09
2022-10-26T01:47:34.304Z,100034.56
2022-10-26T01:50:01.838Z,100035.47
2022-10-26T01:52:28.775Z,100036.28
2022-10-26T01:55:40.847Z,100025.88
2022-10-26T01:58:36.658Z,100035.47
2022-10-26T02:01:45.652Z,100038.19
2022-10-26T02:04:33.941Z,100037.38
2022-10-26T02:07:27.575Z,100039.22
2022-10-26T02:10:19.050Z,100045.31
2022-10-26T02:13:04.404Z,100041.81
2022-10-26T02:15:56.004Z,100038.28
2022-10-26T02:18:32.622Z,100040.06
2022-10-26T02:21:05.931Z,100041.88
2022-10-26T02:23:35.183Z,100051.50
2022-10-26T02:26:03.956Z,100049.72
2022-10-26T02:28:34.495Z,100050.59
2022-10-26T02:31:02.997Z,100048.84
2022-10-26T02:33:32.251Z,100047.06
2022-10-26T02:36:01.241Z,100056.56
2022-10-26T02:38:30.402Z,100056.53
2022-10-26T02:40:58.275Z,100057.34
2022-10-26T02:43:25.676Z,100057.31
2022-10-26T02:45:56.658Z,100053.81
2022-10-26T02:48:23.948Z,100057.28
2022-10-26T02:51:13.125Z,100061.63
2022-10-26T02:53:55.190Z,100060.75
2022-10-26T02:56:26.196Z,100064.19
2022-10-26T02:58:57.743Z,100064.19
2022-10-26T03:01:25.314Z,100063.31
2022-10-26T03:03:52.491Z,100060.72
2022-10-26T03:06:23.677Z,100064.25
2022-10-26T03:08:51.244Z,100060.03
2022-10-26T03:11:18.843Z,100059.28
2022-10-26T03:13:46.065Z,100066.38
2022-10-26T03:16:13.043Z,100069.03
2022-10-26T03:18:40.235Z,100068.09
2022-10-26T03:21:07.234Z,100067.13
2022-10-26T03:23:34.190Z,100071.41
2022-10-26T03:26:01.083Z,100071.41
2022-10-26T03:28:27.997Z,100068.06
2022-10-26T03:30:54.959Z,100071.69
2022-10-26T03:33:25.582Z,100072.72
2022-10-26T03:35:55.957Z,100069.34
2022-10-26T03:38:23.019Z,100065.06
2022-10-26T03:40:50.014Z,100074.63
2022-10-26T03:43:17.265Z,100078.03
2022-10-26T03:45:44.367Z,100072.75
2022-10-26T03:48:11.617Z,100090.94
2022-10-26T03:50:38.643Z,100083.94
2022-10-26T03:53:06.007Z,100089.13
2022-10-26T03:55:32.930Z,100089.09
2022-10-26T03:57:59.962Z,100089.03
2022-10-26T04:00:26.789Z,100093.31
2022-10-26T04:02:56.164Z,100088.13
2022-10-26T04:05:23.849Z,100092.47
2022-10-26T04:07:58.131Z,100099.41
2022-10-26T04:10:26.669Z,100092.44
2022-10-26T04:12:54.574Z,100094.19
2022-10-26T04:15:22.348Z,100104.63
2022-10-26T04:17:49.820Z,100092.44
2022-10-26T04:20:17.123Z,100105.47
2022-10-26T04:22:44.106Z,100108.94
2022-10-26T04:25:12.459Z,100114.19
2022-10-26T04:27:39.482Z,100103.78
2022-10-26T04:30:10.044Z,100100.34
2022-10-26T04:32:37.264Z,100105.56
2022-10-26T04:35:04.576Z,100117.75
2022-10-26T04:37:31.479Z,100113.41
2022-10-26T04:39:58.458Z,100119.53
2022-10-26T04:42:25.685Z,100118.69
2022-10-26T04:44:52.597Z,100114.34
2022-10-26T04:47:19.595Z,100116.16
2022-10-26T04:49:46.462Z,100121.38
2022-10-26T04:52:13.445Z,100120.50
2022-10-26T04:54:40.371Z,100121.41
2022-10-26T04:57:07.493Z,100118.81
2022-10-26T04:59:34.390Z,100127.53
2022-10-26T05:02:01.562Z,100123.22
2022-10-26T05:04:28.479Z,100113.69
2022-10-26T05:06:55.507Z,100110.25
2022-10-26T05:09:22.347Z,100104.16
2022-10-26T05:11:49.297Z,100110.25
2022-10-26T05:14:16.228Z,100112.97
2022-10-26T05:16:44.611Z,100109.53
2022-10-26T05:19:11.632Z,100116.50
2022-10-26T05:21:38.876Z,100113.09
2022-10-26T05:24:10.103Z,100109.75
2022-10-26T05:26:39.394Z,100114.13
2022-10-26T05:29:06.308Z,100107.28
2022-10-26T05:31:33.274Z,100114.31
2022-10-26T05:34:00.127Z,100117.88
2022-10-26T05:36:27.206Z,100111.00
2022-10-26T05:38:54.107Z,100111.94
2022-10-26T05:41:21.177Z,100117.19
2022-10-26T05:43:48.669Z,100116.31
2022-10-26T05:46:15.645Z,100125.06
2022-10-26T05:48:42.717Z,100118.97
2022-10-26T05:51:10.748Z,100133.78
2022-10-26T05:53:37.641Z,100138.09
2022-10-26T05:56:21.062Z,100149.34
2022-10-26T05:58:48.811Z,100129.38
2022-10-26T06:01:37.683Z,100141.50
2022-10-26T06:04:16.758Z,100139.81
2022-10-26T06:06:46.443Z,100133.72
2022-10-26T06:09:15.097Z,100139.81
2022-10-26T06:11:42.648Z,100131.97
2022-10-26T06:14:10.378Z,100131.09
2022-10-26T06:17:05.045Z,100138.88
2022-10-26T06:19:37.774Z,100151.84
2022-10-26T06:22:16.591Z,100154.41
2022-10-26T06:25:01.875Z,100157.03
2022-10-26T06:27:54.622Z,100157.00
2022-10-26T06:30:23.467Z,100156.94
2022-10-26T06:33:01.145Z,100149.94
2022-10-26T06:35:41.604Z,100155.09
2022-10-26T06:38:12.306Z,100165.47
2022-10-26T06:40:42.425Z,100171.50
2022-10-26T06:43:13.621Z,100170.56
2022-10-26T06:45:45.832Z,100179.22
2022-10-26T06:48:19.389Z,100174.78
2022-10-26T06:50:52.021Z,100175.56
2022-10-26T06:53:36.581Z,100181.59
2022-10-26T06:56:03.876Z,100180.66
2022-10-26T06:58:34.603Z,100178.88
2022-10-26T07:01:02.117Z,100187.50
2022-10-26T07:03:29.044Z,100179.63
2022-10-26T07:05:56.055Z,100187.38
2022-10-26T07:08:22.994Z,100183.81
2022-10-26T07:10:49.945Z,100192.41
2022-10-26T07:13:17.866Z,100197.56
2022-10-26T07:15:45.226Z,100200.97
2022-10-26T07:18:12.177Z,100199.13
2022-10-26T07:20:40.833Z,100207.75
2022-10-26T07:23:11.557Z,100203.31
2022-10-26T07:25:40.646Z,100215.34
2022-10-26T07:28:10.624Z,100213.53
2022-10-26T07:30:38.838Z,100219.50
2022-10-26T07:33:08.785Z,100215.81
2022-10-26T07:35:36.022Z,100220.97
2022-10-26T07:38:04.464Z,100220.97
2022-10-26T07:40:31.675Z,100226.09
2022-10-26T07:43:00.294Z,100226.97
2022-10-26T07:45:28.685Z,100228.81
2022-10-26T07:47:55.940Z,100224.47
2022-10-26T07:50:23.551Z,100224.41
2022-10-26T07:52:50.901Z,100234.78
2022-10-26T07:55:19.229Z,100233.88
2022-10-26T07:57:48.540Z,100232.16
2022-10-26T08:00:20.903Z,100238.97
2022-10-26T08:02:47.889Z,100240.69
2022-10-26T08:05:14.873Z,100244.91
2022-10-26T08:07:45.772Z,100252.63
2022-10-26T08:10:13.583Z,100245.63
2022-10-26T08:12:41.117Z,100246.53
2022-10-26T08:15:09.025Z,100247.47
2022-10-26T08:17:35.997Z,100238.75
2022-10-26T08:20:03.201Z,100248.28
2022-10-26T08:22:30.974Z,100249.94
2022-10-26T08:24:58.135Z,100251.50
2022-10-26T08:27:25.236Z,100249.69
2022-10-26T08:29:52.298Z,100256.59
2022-10-26T08:32:19.285Z,100262.59
2022-10-26T08:34:46.323Z,100258.16
2022-10-26T08:37:13.287Z,100262.41
2022-10-26T08:39:40.284Z,100264.06
2022-10-26T08:42:30.262Z,100265.66
2022-10-26T08:45:02.442Z,100258.53
2022-10-26T08:47:36.383Z,100268.16
2022-10-26T08:50:10.096Z,100265.66
2022-10-26T08:52:44.583Z,100268.44
2022-10-26T08:55:17.404Z,100274.53
2022-10-26T08:57:47.929Z,100270.97
2022-10-26T09:00:23.732Z,100270.00
2022-10-26T09:02:54.189Z,100269.88
2022-10-26T09:05:33.421Z,100269.06
2022-10-26T09:08:21.604Z,100264.75
2022-10-26T09:11:13.734Z,100277.78
2022-10-26T09:13:59.787Z,100268.81
2022-10-26T09:16:55.714Z,100280.75
2022-10-26T09:19:41.114Z,100277.66
2022-10-26T09:22:26.203Z,100290.47
2022-10-26T09:24:55.897Z,100288.50
2022-10-26T09:27:25.364Z,100293.44
2022-10-26T09:29:52.725Z,100288.00
2022-10-26T09:32:23.774Z,100283.72
2022-10-26T09:34:54.127Z,100294.25
2022-10-26T09:37:45.315Z,100290.72
2022-10-26T09:40:15.955Z,100289.88
2022-10-26T09:42:56.344Z,100300.44
2022-10-26T09:45:30.074Z,100300.50
2022-10-26T09:48:06.699Z,100303.16
2022-10-26T09:50:36.805Z,100302.22
2022-10-26T09:53:04.072Z,100292.56
2022-10-26T09:55:35.763Z,100298.78
2022-10-26T09:58:04.417Z,100299.59
2022-10-26T10:00:32.029Z,100296.91
2022-10-26T10:02:59.116Z,100294.34
2022-10-26T10:05:52.521Z,100301.38
2022-10-26T10:08:23.627Z,100298.50
2022-10-26T10:11:11.248Z,100301.78
2022-10-26T10:13:46.046Z,100291.06
2022-10-26T10:16:21.625Z,100305.84
2022-10-26T10:18:56.546Z,100302.03
2022-10-26T10:21:46.335Z,100300.63
2022-10-26T10:24:32.950Z,100308.03
2022-10-26T10:27:18.645Z,100316.53
2022-10-26T10:29:51.327Z,100312.06
2022-10-26T10:32:20.962Z,100305.06
2022-10-26T10:34:50.073Z,100310.47
2022-10-26T10:37:27.615Z,100301.78
2022-10-26T10:39:59.963Z,100314.16
2022-10-26T10:42:31.783Z,100319.50
2022-10-26T10:44:58.634Z,100314.38
2022-10-26T10:47:36.253Z,100319.66
2022-10-26T10:50:22.005Z,100321.97
2022-10-26T10:52:49.545Z,100321.78
2022-10-26T10:55:20.783Z,100324.44
2022-10-26T10:58:00.662Z,100323.84
2022-10-26T11:00:27.954Z,100333.59
2022-10-26T11:03:16.916Z,100333.00
2022-10-26T11:06:17.095Z,100332.09
2022-10-26T11:09:02.493Z,100333.88
2022-10-26T11:11:35.343Z,100334.78
2022-10-26T11:14:11.584Z,100338.19
2022-10-26T11:16:45.585Z,100338.19
2022-10-26T11:19:34.023Z,100343.53
2022-10-26T11:22:02.643Z,100340.28
2022-10-26T11:24:34.604Z,100355.31
2022-10-26T11:27:05.374Z,100356.41
2022-10-26T11:29:41.751Z,100357.47
2022-10-26T11:32:14.305Z,100358.22
2022-10-26T11:34:52.565Z,100359.84
2022-10-26T11:37:43.165Z,100351.91
2022-10-26T11:40:30.483Z,100360.84
2022-10-26T11:43:24.563Z,100369.78
2022-10-26T11:46:30.085Z,100369.88
2022-10-26T11:49:02.714Z,100374.25
2022-10-26T11:51:47.509Z,100369.94
2022-10-26T11:56:49.912Z,100375.47
2022-10-26T11:59:33.195Z,100382.69
2022-10-26T12:02:25.225Z,100382.88
2022-10-26T12:05:31.902Z,100384.78
2022-10-26T12:08:11.736Z,100388.41
2022-10-26T12:10:41.474Z,100388.41
2022-10-26T12:13:14.457Z,100394.53
2022-10-26T12:16:03.084Z,100391.84
2022-10-26T12:18:55.498Z,100389.06
2022-10-26T12:21:26.664Z,100393.38
2022-10-26T12:24:22.753Z,100404.69
2022-10-26T12:26:54.134Z,100397.69
2022-10-26T12:29:51.853Z,100390.69
2022-10-26T12:32:30.864Z,100393.38
2022-10-26T12:34:59.763Z,100388.16
2022-10-26T12:37:44.455Z,100390.72
2022-10-26T12:40:33.326Z,100385.44
2022-10-26T12:43:19.164Z,100394.91
2022-10-26T12:45:47.555Z,100392.31
2022-10-26T12:48:53.364Z,100383.72
2022-10-26T12:51:24.712Z,100395.22
2022-10-26T12:54:24.403Z,100400.72
2022-10-26T12:57:10.064Z,100402.56
2022-10-26T12:59:53.944Z,100400.91
2022-10-26T13:02:38.593Z,100398.38
2022-10-26T13:05:44.348Z,100394.03
2022-10-26T13:08:13.085Z,100407.91
2022-10-26T13:10:46.283Z,100403.38
2022-10-26T13:13:23.652Z,100408.34
2022-10-26T13:15:55.354Z,100413.41
2022-10-26T13:18:22.715Z,100409.84
2022-10-26T13:21:03.554Z,100410.06
2022-10-26T13:23:33.116Z,100415.41
2022-10-26T13:26:14.374Z,100419.91
2022-10-26T13:28:41.313Z,100413.97
2022-10-26T13:31:41.717Z,100420.31
2022-10-26T13:34:18.298Z,100418.69
2022-10-26T13:37:05.735Z,100422.28
2022-10-26T13:39:43.923Z,100422.25
2022-10-26T13:42:17.394Z,100419.53
2022-10-26T13:45:04.214Z,100423.78
2022-10-26T13:47:50.008Z,100430.78
2022-10-26T13:50:26.412Z,100428.19
2022-10-26T13:52:58.893Z,100421.13
2022-10-26T13:55:28.525Z,100424.56
2022-10-26T13:58:25.790Z,100429.75
2022-10-26T14:01:12.948Z,100427.19
2022-10-26T14:03:41.323Z,100421.91
2022-10-26T14:06:32.770Z,100420.19
2022-10-26T14:09:07.343Z,100421.06
2022-10-26T14:11:53.725Z,100426.31
2022-10-26T14:14:24.303Z,100429.81
2022-10-26T14:16:53.015Z,100425.50
2022-10-26T14:19:39.924Z,100430.78
2022-10-26T14:22:07.404Z,100435.19
2022-10-26T14:24:48.418Z,100434.41
2022-10-26T14:27:21.794Z,100430.97
2022-10-26T14:30:16.711Z,100433.59
2022-10-26T14:32:37.174Z,100441.44
2022-10-26T14:35:04.311Z,100436.28
2022-10-26T14:37:51.756Z,100438.94
2022-10-26T14:40:25.481Z,100444.19
2022-10-26T14:42:55.934Z,100439.84
2022-10-26T14:45:29.907Z,100440.72
2022-10-26T14:48:05.782Z,100439.91
2022-10-26T14:50:34.804Z,100438.16
2022-10-26T14:53:05.072Z,100444.34
2022-10-26T14:55:45.481Z,100442.59
2022-10-26T14:58:31.700Z,100446.09
2022-10-26T15:01:23.986Z,100438.25
2022-10-26T15:04:06.091Z,100442.63
2022-10-26T15:06:34.922Z,100440.00
2022-10-26T15:09:05.393Z,100438.31
2022-10-26T15:11:34.547Z,100447.06
2022-10-26T15:14:02.135Z,100452.31
2022-10-26T15:16:31.873Z,100455.84
2022-10-26T15:19:06.844Z,100461.16
2022-10-26T15:21:46.008Z,100462.97
2022-10-26T15:24:28.376Z,100453.50
2022-10-26T15:26:55.866Z,100451.84
2022-10-26T15:29:43.425Z,100465.06
2022-10-26T15:32:33.029Z,100458.16
2022-10-26T15:35:27.416Z,100457.41
2022-10-26T15:37:55.839Z,100458.28
2022-10-26T15:42:59.006Z,100464.44
2022-10-26T15:45:33.317Z,100466.19
2022-10-26T15:48:23.225Z,100474.88
2022-10-26T15:50:50.240Z,100482.72
2022-10-26T15:53:20.687Z,100476.63
2022-10-26T15:55:48.906Z,100480.16
2022-10-26T15:58:15.847Z,100485.38
2022-10-26T16:00:42.986Z,100482.75
2022-10-26T16:03:15.496Z,100481.09
2022-10-26T16:05:42.728Z,100482.88
2022-10-26T16:08:17.722Z,100483.03
2022-10-26T16:10:45.703Z,100497.84
2022-10-26T16:13:14.005Z,100492.63
2022-10-26T16:15:41.265Z,100495.22
2022-10-26T16:18:08.420Z,100495.22
2022-10-26T16:20:35.554Z,100496.09
2022-10-26T16:23:06.693Z,100497.91
2022-10-26T16:25:41.548Z,100495.31
2022-10-26T16:28:10.467Z,100500.59
2022-10-26T16:30:37.422Z,100495.41
2022-10-26T16:33:04.521Z,100496.28
2022-10-26T16:35:31.654Z,100496.28
2022-10-26T16:37:58.498Z,100496.28
2022-10-26T16:40:25.509Z,100510.22
2022-10-26T16:42:52.843Z,100507.66
2022-10-26T16:45:20.031Z,100509.41
2022-10-26T16:47:47.153Z,100510.25
2022-10-26T16:50:14.809Z,100505.94
2022-10-26T16:52:41.859Z,100502.47
2022-10-26T16:55:09.703Z,100515.56
2022-10-26T16:57:37.026Z,100514.72
2022-10-26T17:00:06.438Z,100516.50
2022-10-26T17:02:33.486Z,100521.78
2022-10-26T17:05:04.192Z,100528.81
2022-10-26T17:07:34.013Z,100530.59
2022-10-26T17:10:00.908Z,100526.28
2022-10-26T17:12:27.912Z,100535.97
2022-10-26T17:14:56.454Z,100532.53
2022-10-26T17:17:23.331Z,100541.34
2022-10-26T17:19:51.127Z,100540.56
2022-10-26T17:22:18.210Z,100535.44
2022-10-26T17:24:45.290Z,100534.69
2022-10-26T17:27:12.189Z,100544.31
2022-10-26T17:29:39.239Z,100550.47
2022-10-26T17:32:07.380Z,100551.41
2022-10-26T17:34:34.449Z,100556.63
2022-10-26T17:37:01.628Z,100551.44
2022-10-26T17:39:30.137Z,100556.69
2022-10-26T17:41:57.288Z,100565.38
2022-10-26T17:44:25.951Z,100562.78
2022-10-26T17:46:54.786Z,100562.75
2022-10-26T17:49:26.511Z,100561.91
2022-10-26T17:51:56.426Z,100564.50
2022-10-26T17:54:23.633Z,100572.34
2022-10-26T17:56:52.532Z,100579.28
2022-10-26T17:59:20.077Z,100581.00
2022-10-26T18:01:47.364Z,100587.09
2022-10-26T18:04:14.322Z,100588.84
2022-10-26T18:06:41.444Z,100593.19
2022-10-26T18:09:08.303Z,100586.22
2022-10-26T18:11:35.211Z,100592.31
2022-10-26T18:14:02.304Z,100591.44
2022-10-26T18:16:29.218Z,100596.66
2022-10-26T18:19:01.500Z,100591.41
2022-10-26T18:21:33.684Z,100601.84
2022-10-26T18:24:00.803Z,100603.56
2022-10-26T18:26:31.510Z,100605.31
2022-10-26T18:29:01.319Z,100608.78
2022-10-26T18:31:32.070Z,100607.03
2022-10-26T18:34:02.144Z,100615.69
2022-10-26T18:36:30.624Z,100611.34
2022-10-26T18:38:59.535Z,100613.97
2022-10-26T18:41:28.212Z,100620.00
2022-10-26T18:44:04.670Z,100625.22
2022-10-26T18:46:37.243Z,100629.56
2022-10-26T18:49:06.731Z,100636.50
2022-10-26T18:51:35.284Z,100633.88
2022-10-26T18:54:04.229Z,100637.34
2022-10-26T18:56:32.277Z,100633.88
2022-10-26T18:59:00.436Z,100640.81
2022-10-26T19:01:33.906Z,100645.16
2022-10-26T19:04:06.060Z,100639.06
2022-10-26T19:06:43.531Z,100642.50
2022-10-26T19:09:17.232Z,100639.91
2022-10-26T19:11:46.456Z,100645.94
2022-10-26T19:14:15.942Z,100638.13
2022-10-26T19:16:47.475Z,100642.47
2022-10-26T19:19:19.369Z,100645.91
2022-10-26T19:21:50.248Z,100647.66
2022-10-26T19:24:19.466Z,100640.69
2022-10-26T19:26:48.111Z,100643.28
2022-10-26T19:29:16.907Z,100651.09
2022-10-26T19:31:45.325Z,100648.53
2022-10-26T19:34:13.656Z,100658.06
2022-10-26T19:36:45.026Z,100665.03
2022-10-26T19:39:16.419Z,100671.09
2022-10-26T19:41:44.665Z,100674.56
2022-10-26T19:44:13.265Z,100678.88
2022-10-26T19:46:40.659Z,100684.06
2022-10-26T19:49:08.141Z,100689.28
2022-10-26T19:51:35.177Z,100675.38
2022-10-26T19:54:07.248Z,100679.72
2022-10-26T19:56:35.432Z,100685.78
2022-10-26T19:59:02.628Z,100682.31
2022-10-26T20:01:29.743Z,100680.56
2022-10-26T20:03:57.348Z,100692.72
2022-10-26T20:06:27.245Z,100683.19
2022-10-26T20:08:55.441Z,100684.03
2022-10-26T20:11:23.783Z,100684.91
2022-10-26T20:13:51.223Z,100689.22
2022-10-26T20:16:18.483Z,100686.63
2022-10-26T20:18:48.748Z,100687.44
2022-10-26T20:21:17.558Z,100679.66
2022-10-26T20:23:45.871Z,100678.75
2022-10-26T20:26:19.641Z,100676.16
2022-10-26T20:28:49.062Z,100667.50
2022-10-26T20:31:16.135Z,100673.53
2022-10-26T20:33:43.341Z,100683.94
2022-10-26T20:36:10.463Z,100692.63
2022-10-26T20:38:39.172Z,100700.41
2022-10-26T20:41:10.247Z,100703.94
2022-10-26T20:43:39.875Z,100698.78
2022-10-26T20:46:09.705Z,100705.78
2022-10-26T20:48:38.912Z,100704.09
2022-10-26T20:51:23.863Z,100711.91
2022-10-26T20:54:02.014Z,100722.34
2022-10-26T20:56:29.399Z,100716.28
2022-10-26T20:58:57.505Z,100720.66
2022-10-26T21:01:29.047Z,100714.56
2022-10-26T21:03:57.816Z,100707.66
2022-10-26T21:06:26.295Z,100712.88
2022-10-26T21:08:54.948Z,100715.50
2022-10-26T21:11:23.314Z,100702.50
2022-10-26T21:13:52.278Z,100707.69
2022-10-26T21:16:19.223Z,100704.22
2022-10-26T21:18:46.438Z,100706.84
2022-10-26T21:21:13.369Z,100705.09
2022-10-26T21:23:41.198Z,100706.88
2022-10-26T21:26:08.698Z,100712.06
2022-10-26T21:28:45.760Z,100704.28
2022-10-26T21:31:14.813Z,100715.56
2022-10-26T21:33:41.918Z,100721.63
2022-10-26T21:36:14.040Z,100711.22
2022-10-26T21:38:42.743Z,100726.84
2022-10-26T21:41:15.045Z,100725.13
2022-10-26T21:43:43.459Z,100728.59
2022-10-26T21:46:10.977Z,100734.66
2022-10-26T21:48:38.463Z,100734.66
2022-10-26T21:51:12.772Z,100733.78
2022-10-26T21:53:40.277Z,100737.25
2022-10-26T21:56:12.433Z,100738.13
2022-10-26T21:58:39.803Z,100730.31
2022-10-26T22:01:11.717Z,100734.66
2022-10-26T22:03:39.464Z,100729.44
2022-10-26T22:06:08.122Z,100724.25
2022-10-26T22:08:36.178Z,100721.66
2022-10-26T22:11:15.494Z,100725.13
2022-10-26T22:13:44.104Z,100722.50
2022-10-26T22:16:21.213Z,100719.91
2022-10-26T22:18:49.697Z,100722.50
2022-10-26T22:21:18.082Z,100720.78
2022-10-26T22:23:45.511Z,100725.13
2022-10-26T22:26:16.167Z,100724.25
2022-10-26T22:28:44.829Z,100729.47
2022-10-26T22:31:14.658Z,100726.00
2022-10-26T22:33:42.218Z,100724.25
2022-10-26T22:36:14.738Z,100725.09
2022-10-26T22:38:42.102Z,100710.38
2022-10-26T22:41:09.898Z,100712.06
2022-10-26T22:43:36.945Z,100713.84
2022-10-26T22:46:21.567Z,100716.44
2022-10-26T22:48:53.642Z,100709.50
2022-10-26T22:51:21.437Z,100703.44
2022-10-26T22:53:53.055Z,100710.38
2022-10-26T22:56:20.400Z,100708.66
2022-10-26T22:58:47.379Z,100711.25
2022-10-26T23:01:19.168Z,100716.44
2022-10-26T23:03:46.111Z,100717.38
2022-10-26T23:06:15.507Z,100714.75
2022-10-26T23:08:42.634Z,100722.59
2022-10-26T23:11:13.105Z,100724.31
2022-10-26T23:13:40.281Z,100725.16
2022-10-26T23:16:11.819Z,100719.94
2022-10-26T23:18:39.306Z,100723.41
2022-10-26T23:21:07.506Z,100716.47
2022-10-26T23:23:35.385Z,100719.06
2022-10-26T23:26:04.085Z,100724.25
2022-10-26T23:28:31.479Z,100730.34
2022-10-26T23:30:58.365Z,100727.75
2022-10-26T23:33:25.515Z,100737.31
2022-10-26T23:35:53.044Z,100742.50
2022-10-26T23:38:20.200Z,100738.16
2022-10-26T23:40:55.265Z,100733.81
2022-10-26T23:43:22.676Z,100734.69
2022-10-26T23:45:49.640Z,100732.94
2022-10-26T23:48:17.519Z,100731.22
2022-10-26T23:50:45.788Z,100729.47
2022-10-26T23:53:14.071Z,100726.00
2022-10-26T23:55:40.975Z,100728.59
2022-10-26T23:58:07.835Z,100720.78
